Time;durP1;ratioP1;P1;durP2;ratioP2;P2;SDS_P1;SDS_P2;PMS_P1;PMS_P2;Temp;Humidity;BMP_temperature;BMP_pressure;BME280_temperature;BME280_humidity;BME280_pressure;Samples;Min_cycle;Max_cycle;Signal;HPM_P1;HPM_P2
2023/07/09 00:01:58;;;;;;;6.83;5.70;;;22.30;13.90;;;;;;4952684;28;20667;-60
2023/07/09 00:04:28;;;;;;;10.80;6.07;;;22.20;18.40;;;;;;4955647;28;20203;-60
2023/07/09 00:07:02;;;;;;;7.57;5.20;;;22.20;22.30;;;;;;4946364;28;20219;-60
2023/07/09 00:09:31;;;;;;;6.53;5.30;;;22.20;27.10;;;;;;4952646;28;20192;-60
2023/07/09 00:11:59;;;;;;;7.90;5.23;;;22.10;28.20;;;;;;4952400;28;20570;-65
2023/07/09 00:14:28;;;;;;;6.93;5.73;;;22.10;31.80;;;;;;4955277;28;20201;-60
2023/07/09 00:16:56;;;;;;;8.80;5.77;;;22.00;32.90;;;;;;4947766;28;20202;-60
2023/07/09 00:19:24;;;;;;;7.87;5.20;;;22.00;28.50;;;;;;4951246;28;20563;-60
2023/07/09 00:21:54;;;;;;;9.07;5.83;;;22.00;29.90;;;;;;4945239;28;20203;-60
2023/07/09 00:24:24;;;;;;;8.07;5.90;;;22.00;33.50;;;;;;4949354;28;20693;-60
2023/07/09 00:26:52;;;;;;;7.67;5.73;;;21.90;29.30;;;;;;4948325;28;20200;-60
2023/07/09 00:29:20;;;;;;;7.30;5.77;;;21.90;31.20;;;;;;4947395;28;20188;-60
2023/07/09 00:31:49;;;;;;;7.40;5.83;;;21.80;38.20;;;;;;4949886;28;20224;-60
2023/07/09 00:34:21;;;;;;;9.17;6.17;;;21.80;42.90;;;;;;4942346;28;20200;-61
2023/07/09 00:36:50;;;;;;;10.30;6.43;;;21.80;47.40;;;;;;4945508;28;20200;-60
2023/07/09 00:39:20;;;;;;;9.77;6.00;;;21.70;50.00;;;;;;4951157;28;20697;-61
2023/07/09 00:41:50;;;;;;;7.60;6.30;;;21.70;54.40;;;;;;4943315;28;20196;-61
2023/07/09 00:44:32;;;;;;;10.63;7.20;;;21.70;52.80;;;;;;4946466;28;20329;-61
2023/07/09 00:47:24;;;;;;;10.07;7.03;;;21.70;45.90;;;;;;4946542;28;20204;-61
2023/07/09 00:50:04;;;;;;;12.77;7.37;;;21.80;32.30;;;;;;4945136;28;20196;-60
2023/07/09 00:52:36;;;;;;;11.87;7.53;;;21.90;25.60;;;;;;4960739;28;20217;-60
2023/07/09 00:55:10;;;;;;;11.90;7.80;;;22.00;17.00;;;;;;4951336;28;20228;-60
2023/07/09 00:57:41;;;;;;;11.00;7.33;;;22.10;11.80;;;;;;4949836;28;20199;-60
2023/07/09 01:00:14;;;;;;;10.33;7.37;;;22.10;6.10;;;;;;4948870;28;20203;-60
2023/07/09 01:02:48;;;;;;;10.47;7.40;;;22.10;1.90;;;;;;4953661;28;20191;-60
2023/07/09 01:05:19;;;;;;;8.47;6.97;;;22.10;1.00;;;;;;4954470;28;20195;-60
2023/07/09 01:07:49;;;;;;;10.60;7.83;;;22.20;1.00;;;;;;4944128;28;20295;-60
2023/07/09 01:10:20;;;;;;;12.37;7.57;;;22.20;1.00;;;;;;4948678;28;20223;-60
2023/07/09 01:12:51;;;;;;;9.97;7.30;;;22.20;1.00;;;;;;4948241;28;20212;-60
2023/07/09 01:15:19;;;;;;;13.03;6.97;;;22.20;1.00;;;;;;4950601;28;20194;-60
2023/07/09 01:17:47;;;;;;;9.87;7.23;;;22.20;1.00;;;;;;4952785;28;20204;-60
2023/07/09 01:20:20;;;;;;;7.20;6.50;;;22.20;1.00;;;;;;4928612;29;21294;-61
2023/07/09 01:22:54;;;;;;;11.63;7.27;;;22.20;1.00;;;;;;4945668;28;20219;-61
2023/07/09 01:25:24;;;;;;;13.10;6.37;;;22.20;1.00;;;;;;4943641;28;20817;-60
2023/07/09 01:27:52;;;;;;;10.23;6.40;;;22.10;1.00;;;;;;4942281;28;20251;-61
2023/07/09 01:30:23;;;;;;;9.53;6.97;;;22.10;1.00;;;;;;4948324;28;20205;-61
2023/07/09 01:32:56;;;;;;;11.60;7.73;;;22.10;1.00;;;;;;4951085;28;20344;-61
2023/07/09 01:35:26;;;;;;;12.43;7.87;;;22.10;1.00;;;;;;4944875;28;22149;-60
2023/07/09 01:38:06;;;;;;;10.87;7.50;;;22.10;1.00;;;;;;4948531;28;20223;-61
2023/07/09 01:40:38;;;;;;;10.10;6.93;;;22.00;1.00;;;;;;4949570;28;20311;-61
2023/07/09 01:43:07;;;;;;;7.13;6.40;;;22.00;1.00;;;;;;4950218;28;20235;-61
2023/07/09 01:45:37;;;;;;;8.83;7.00;;;21.90;1.00;;;;;;4955860;28;20196;-61
2023/07/09 01:48:15;;;;;;;7.50;6.67;;;21.80;1.00;;;;;;4948923;28;20654;-61
2023/07/09 01:50:45;;;;;;;7.33;6.60;;;21.70;10.20;;;;;;4941563;28;20200;-61
2023/07/09 01:53:16;;;;;;;12.57;7.40;;;21.60;19.10;;;;;;4941769;28;20273;-62
2023/07/09 01:55:45;;;;;;;9.47;7.63;;;21.60;28.60;;;;;;4943604;28;20192;-61
2023/07/09 01:58:16;;;;;;;10.67;7.77;;;21.60;28.90;;;;;;4950853;28;20211;-61
2023/07/09 02:00:44;;;;;;;11.27;6.93;;;21.60;30.30;;;;;;4930747;29;20626;-61
2023/07/09 02:03:13;;;;;;;10.33;7.40;;;21.60;26.20;;;;;;4945132;28;20248;-61
2023/07/09 02:05:42;;;;;;;7.40;6.70;;;21.60;25.50;;;;;;4947950;28;20263;-61
2023/07/09 02:08:10;;;;;;;10.73;6.63;;;21.70;20.10;;;;;;4946113;28;20197;-61
2023/07/09 02:10:40;;;;;;;10.37;7.20;;;21.70;19.00;;;;;;4946804;28;20203;-61
2023/07/09 02:13:08;;;;;;;9.07;7.07;;;21.60;22.30;;;;;;4944859;28;20200;-61
2023/07/09 02:15:36;;;;;;;10.60;6.73;;;21.50;27.40;;;;;;4951269;28;20207;-61
2023/07/09 02:18:04;;;;;;;8.77;6.40;;;21.50;24.10;;;;;;4949996;28;20193;-62
2023/07/09 02:20:33;;;;;;;9.70;6.53;;;21.50;20.90;;;;;;4947815;28;20812;-61
2023/07/09 02:23:01;;;;;;;11.63;6.10;;;21.50;22.10;;;;;;4951285;28;20892;-61
2023/07/09 02:25:29;;;;;;;7.80;6.30;;;21.50;23.50;;;;;;4953817;28;20569;-59
2023/07/09 02:27:59;;;;;;;9.73;6.70;;;21.40;26.40;;;;;;4948549;28;20202;-62
2023/07/09 02:30:28;;;;;;;7.50;5.90;;;21.40;30.20;;;;;;4943656;28;20203;-62
2023/07/09 02:32:56;;;;;;;9.37;6.20;;;21.30;33.00;;;;;;4947858;28;20227;-62
2023/07/09 02:35:25;;;;;;;9.30;5.97;;;21.30;31.50;;;;;;4951341;28;20263;-62
2023/07/09 02:37:53;;;;;;;6.90;5.73;;;21.20;33.60;;;;;;4959266;28;20200;-62
2023/07/09 02:40:21;;;;;;;7.43;5.60;;;21.20;39.50;;;;;;4949012;28;20223;-62
2023/07/09 02:42:49;;;;;;;8.47;5.97;;;21.20;39.40;;;;;;4946185;28;20211;-60
2023/07/09 02:45:19;;;;;;;13.90;7.33;;;21.10;43.20;;;;;;4965763;28;20199;-61
2023/07/09 02:47:48;;;;;;;8.87;6.03;;;21.10;45.20;;;;;;4969521;28;20206;-61
2023/07/09 02:50:17;;;;;;;9.37;6.10;;;21.10;47.40;;;;;;4963441;28;20292;-61
2023/07/09 02:52:45;;;;;;;9.97;5.70;;;21.10;47.70;;;;;;4955724;28;20223;-60
2023/07/09 02:55:14;;;;;;;6.37;5.70;;;21.10;54.40;;;;;;4962642;28;20246;-60
2023/07/09 02:57:42;;;;;;;7.70;6.03;;;21.00;53.20;;;;;;4975114;28;20195;-61
2023/07/09 03:00:11;;;;;;;7.33;6.40;;;21.00;55.70;;;;;;4956985;28;20223;-61
2023/07/09 03:02:41;;;;;;;9.43;6.27;;;20.90;54.30;;;;;;4950443;28;20503;-61
2023/07/09 03:05:10;;;;;;;8.97;6.13;;;20.90;56.50;;;;;;4956587;29;20196;-61
2023/07/09 03:07:38;;;;;;;8.90;6.57;;;20.80;57.00;;;;;;4959436;28;20542;-61
2023/07/09 03:10:08;;;;;;;6.87;6.17;;;20.80;67.60;;;;;;4937823;29;20196;-61
2023/07/09 03:12:36;;;;;;;8.23;6.87;;;20.70;64.80;;;;;;4961972;28;20195;-61
2023/07/09 03:15:05;;;;;;;9.83;6.60;;;20.70;74.10;;;;;;4957256;28;20202;-62
2023/07/09 03:17:34;;;;;;;11.03;7.60;;;20.70;75.30;;;;;;4956357;28;20543;-60
2023/07/09 03:20:04;;;;;;;10.50;7.93;;;20.70;76.40;;;;;;4963730;28;20212;-61
2023/07/09 03:22:32;;;;;;;11.90;8.63;;;20.70;77.70;;;;;;4960230;28;20200;-61
2023/07/09 03:25:00;;;;;;;12.53;9.17;;;20.60;78.60;;;;;;4960295;28;20223;-61
2023/07/09 03:27:29;;;;;;;11.70;9.67;;;20.60;82.90;;;;;;4960443;28;20550;-60
2023/07/09 03:29:57;;;;;;;11.57;9.13;;;20.60;85.30;;;;;;4953965;28;20394;-60
2023/07/09 03:32:25;;;;;;;11.63;9.47;;;20.50;90.20;;;;;;4962824;28;20306;-60
2023/07/09 03:34:54;;;;;;;15.93;9.27;;;20.50;91.00;;;;;;4970254;28;20216;-61
2023/07/09 03:37:23;;;;;;;13.77;9.17;;;20.50;92.30;;;;;;4955683;28;20279;-61
2023/07/09 03:39:52;;;;;;;14.83;11.83;;;20.50;92.90;;;;;;4974013;28;20219;-61
2023/07/09 03:42:20;;;;;;;14.70;10.47;;;20.50;94.40;;;;;;4959515;28;20195;-60
2023/07/09 03:44:48;;;;;;;13.37;10.30;;;20.40;93.80;;;;;;4958641;28;20554;-60
2023/07/09 03:47:19;;;;;;;15.43;9.47;;;20.40;94.00;;;;;;4946020;28;20188;-61
2023/07/09 03:49:47;;;;;;;14.67;10.63;;;20.40;93.70;;;;;;4970009;28;20796;-61
2023/07/09 03:52:16;;;;;;;12.97;9.60;;;20.30;94.40;;;;;;4965545;28;20665;-60
2023/07/09 03:54:45;;;;;;;16.57;10.33;;;20.30;96.00;;;;;;4954862;28;20228;-60
2023/07/09 03:57:14;;;;;;;13.50;9.97;;;20.30;97.00;;;;;;4969407;28;20196;-60
2023/07/09 03:59:44;;;;;;;17.87;11.30;;;20.20;97.70;;;;;;4949710;29;20216;-60
2023/07/09 04:02:12;;;;;;;16.23;10.73;;;20.20;99.90;;;;;;4964737;28;20191;-61
2023/07/09 04:04:40;;;;;;;14.57;9.70;;;20.20;99.90;;;;;;4957191;28;20713;-61
2023/07/09 04:07:09;;;;;;;14.37;10.40;;;20.20;99.90;;;;;;4962704;28;20194;-61
2023/07/09 04:09:37;;;;;;;18.40;10.70;;;20.10;99.90;;;;;;4965049;28;20200;-61
2023/07/09 04:12:08;;;;;;;12.80;10.13;;;20.10;99.90;;;;;;4954994;28;20678;-61
2023/07/09 04:14:36;;;;;;;15.67;11.53;;;20.10;99.90;;;;;;4963835;28;20191;-61
2023/07/09 04:17:05;;;;;;;15.30;10.77;;;20.10;99.90;;;;;;4972314;28;20203;-60
2023/07/09 04:19:33;;;;;;;20.40;13.63;;;20.10;99.90;;;;;;4971766;28;20210;-60
2023/07/09 04:22:02;;;;;;;30.47;20.73;;;20.10;99.90;;;;;;4965079;28;20199;-60
2023/07/09 04:24:33;;;;;;;30.33;20.70;;;20.10;99.90;;;;;;4961090;28;20287;-60
2023/07/09 04:27:02;;;;;;;33.67;23.43;;;20.20;99.90;;;;;;4957240;28;20196;-61
2023/07/09 04:29:33;;;;;;;45.27;27.20;;;20.20;99.90;;;;;;4970086;28;20201;-60
2023/07/09 04:32:02;;;;;;;43.40;28.83;;;20.20;99.90;;;;;;4959067;28;20216;-61
2023/07/09 04:34:30;;;;;;;54.57;35.07;;;20.30;99.90;;;;;;4963173;28;20198;-61
2023/07/09 04:36:58;;;;;;;69.30;46.97;;;20.30;99.30;;;;;;4954716;28;20197;-61
2023/07/09 04:39:27;;;;;;;61.00;41.33;;;20.30;94.70;;;;;;4968693;28;20200;-61
2023/07/09 04:41:55;;;;;;;77.50;49.93;;;20.30;95.20;;;;;;4962222;28;20222;-61
2023/07/09 04:44:24;;;;;;;90.50;59.33;;;20.30;89.30;;;;;;4958795;28;20204;-61
2023/07/09 04:46:54;;;;;;;96.57;61.40;;;20.30;74.50;;;;;;4954533;28;20196;-60
2023/07/09 04:49:22;;;;;;;96.40;61.97;;;20.30;67.70;;;;;;4967360;28;20558;-60
2023/07/09 04:51:51;;;;;;;100.47;63.73;;;20.30;65.50;;;;;;4962686;28;20192;-60
2023/07/09 04:54:19;;;;;;;93.80;59.57;;;20.30;59.50;;;;;;4964660;28;20844;-60
2023/07/09 04:56:48;;;;;;;82.67;54.27;;;20.40;61.90;;;;;;4969983;28;20207;-61
2023/07/09 04:59:16;;;;;;;77.07;49.93;;;20.50;57.10;;;;;;4958703;28;20192;-60
2023/07/09 05:01:45;;;;;;;88.50;57.77;;;20.60;63.10;;;;;;4954407;28;20219;-61
2023/07/09 05:04:14;;;;;;;96.27;62.33;;;20.70;57.70;;;;;;4963972;28;20188;-61
2023/07/09 05:06:43;;;;;;;86.00;58.67;;;20.70;47.80;;;;;;4955088;28;20210;-61
2023/07/09 05:09:11;;;;;;;94.23;61.60;;;20.80;40.20;;;;;;4973911;28;20200;-61
2023/07/09 05:11:39;;;;;;;99.13;64.53;;;20.80;36.50;;;;;;4959279;28;20191;-61
2023/07/09 05:14:11;;;;;;;84.80;57.33;;;21.00;20.60;;;;;;4958405;28;20207;-61
2023/07/09 05:16:39;;;;;;;94.60;63.47;;;21.10;21.50;;;;;;4954354;28;20812;-61
2023/07/09 05:19:09;;;;;;;89.27;59.60;;;21.10;9.30;;;;;;4970333;28;20210;-61
2023/07/09 05:21:38;;;;;;;91.60;57.97;;;21.10;10.20;;;;;;4956656;28;20688;-61
2023/07/09 05:24:07;;;;;;;96.60;63.97;;;21.20;12.30;;;;;;4966365;28;20203;-61
2023/07/09 05:26:36;;;;;;;93.53;59.80;;;21.40;1.00;;;;;;4964297;28;20191;-61
2023/07/09 05:29:05;;;;;;;92.40;60.30;;;21.40;1.00;;;;;;4964089;28;20563;-61
2023/07/09 05:31:35;;;;;;;86.93;57.03;;;21.60;1.00;;;;;;4968437;28;20195;-61
2023/07/09 05:34:04;;;;;;;91.03;56.53;;;21.70;1.00;;;;;;4970703;28;20192;-61
2023/07/09 05:36:32;;;;;;;87.37;59.83;;;21.80;1.00;;;;;;4955446;28;20196;-61
2023/07/09 05:39:02;;;;;;;84.30;56.47;;;21.90;1.00;;;;;;4953127;28;20189;-62
2023/07/09 05:41:30;;;;;;;89.63;58.87;;;22.00;1.00;;;;;;4972979;28;20249;-62
2023/07/09 05:44:01;;;;;;;76.13;52.07;;;22.10;1.00;;;;;;4955319;28;20212;-61
2023/07/09 05:46:29;;;;;;;85.87;57.63;;;22.20;1.00;;;;;;4964149;28;20635;-61
2023/07/09 05:48:57;;;;;;;82.40;54.23;;;22.30;1.00;;;;;;4961957;28;20292;-61
2023/07/09 05:51:26;;;;;;;89.87;54.80;;;22.40;1.00;;;;;;4959209;28;20666;-61
2023/07/09 05:53:55;;;;;;;86.20;58.43;;;22.50;1.00;;;;;;4953578;28;20226;-61
2023/07/09 05:56:24;;;;;;;88.33;57.30;;;22.60;1.00;;;;;;4965431;28;20193;-61
2023/07/09 05:58:53;;;;;;;86.40;57.13;;;22.60;1.00;;;;;;4960366;28;20202;-61
2023/07/09 06:01:22;;;;;;;78.83;54.07;;;22.70;1.00;;;;;;4956968;28;20221;-61
2023/07/09 06:03:50;;;;;;;87.23;55.33;;;22.80;1.00;;;;;;4962272;28;20273;-61
2023/07/09 06:06:19;;;;;;;81.83;53.13;;;22.80;1.00;;;;;;4958669;28;20191;-60
2023/07/09 06:08:47;;;;;;;73.37;50.57;;;22.90;1.00;;;;;;4946172;28;20201;-60
2023/07/09 06:11:17;;;;;;;80.20;50.93;;;23.00;1.00;;;;;;4954338;28;20210;-59
2023/07/09 06:13:48;;;;;;;78.03;49.57;;;23.00;1.00;;;;;;4961002;28;20544;-61
2023/07/09 06:16:17;;;;;;;76.30;48.93;;;23.10;1.00;;;;;;4965157;28;20199;-61
2023/07/09 06:18:45;;;;;;;64.63;41.83;;;23.20;1.00;;;;;;4956417;28;20242;-61
2023/07/09 06:21:13;;;;;;;64.60;42.23;;;23.40;1.00;;;;;;4963081;28;20217;-61
2023/07/09 06:23:42;;;;;;;66.37;42.30;;;23.60;1.00;;;;;;4963355;28;20211;-61
2023/07/09 06:26:10;;;;;;;70.97;42.07;;;23.70;1.00;;;;;;4964752;28;20194;-61
2023/07/09 06:28:38;;;;;;;58.40;38.83;;;23.80;1.00;;;;;;4967346;28;20204;-61
2023/07/09 06:31:08;;;;;;;55.87;36.67;;;23.80;1.00;;;;;;4968779;28;20192;-61
2023/07/09 06:33:36;;;;;;;54.53;34.97;;;23.90;1.00;;;;;;4956786;28;20269;-62
2023/07/09 06:36:05;;;;;;;53.03;35.97;;;23.90;1.00;;;;;;4973047;28;20526;-61
2023/07/09 06:38:34;;;;;;;51.63;33.93;;;24.00;1.00;;;;;;4960275;28;20192;-61
2023/07/09 06:41:03;;;;;;;48.57;31.67;;;24.20;1.00;;;;;;4963070;28;20208;-62
2023/07/09 06:43:31;;;;;;;42.63;28.60;;;24.30;1.00;;;;;;4959685;28;20192;-62
2023/07/09 06:46:01;;;;;;;45.77;28.37;;;24.40;1.00;;;;;;4969890;28;20202;-61
2023/07/09 06:48:32;;;;;;;43.00;26.10;;;24.40;1.00;;;;;;4963307;28;20203;-61
2023/07/09 06:51:01;;;;;;;39.20;26.57;;;24.60;1.00;;;;;;4953730;28;20263;-61
2023/07/09 06:53:31;;;;;;;38.47;24.97;;;24.70;1.00;;;;;;4958850;28;20756;-61
2023/07/09 06:55:59;;;;;;;45.73;25.37;;;24.70;1.00;;;;;;4960561;28;20204;-61
2023/07/09 06:58:31;;;;;;;33.93;23.90;;;24.90;1.00;;;;;;4971128;28;20200;-62
2023/07/09 07:01:03;;;;;;;34.97;25.33;;;25.10;1.00;;;;;;4971763;28;20583;-61
2023/07/09 07:03:34;;;;;;;34.57;24.80;;;25.20;99.90;;;;;;4959479;28;20216;-62
2023/07/09 07:06:03;;;;;;;32.70;22.93;;;25.30;99.90;;;;;;4961142;28;20556;-61
2023/07/09 07:08:32;;;;;;;34.80;23.58;;;25.50;99.90;;;;;;4939839;28;20200;-62
2023/07/09 07:11:02;;;;;;;31.23;22.38;;;25.60;99.90;;;;;;4963365;28;20200;-62
2023/07/09 07:13:32;;;;;;;36.75;22.98;;;25.80;99.90;;;;;;4964427;28;20232;-62
2023/07/09 07:16:00;;;;;;;33.13;21.95;;;26.00;99.90;;;;;;4966122;28;20642;-62
2023/07/09 07:18:29;;;;;;;29.33;18.95;;;26.30;99.90;;;;;;4960921;28;20202;-62
2023/07/09 07:20:59;;;;;;;32.83;22.30;;;26.30;99.90;;;;;;4953425;28;20697;-62
2023/07/09 07:23:27;;;;;;;35.55;21.48;;;26.30;99.90;;;;;;4958375;28;20220;-61
2023/07/09 07:25:56;;;;;;;33.28;21.38;;;26.60;99.90;;;;;;4965442;28;20279;-61
2023/07/09 07:28:24;;;;;;;28.17;20.60;;;26.60;1.00;;;;;;4956346;28;20211;-61
2023/07/09 07:31:00;;;;;;;30.25;21.38;;;26.40;99.90;;;;;;4972024;28;20189;-61
2023/07/09 07:33:28;;;;;;;32.33;20.35;;;26.40;54.20;;;;;;4955128;28;20333;-62
2023/07/09 07:35:58;;;;;;;32.10;20.75;;;26.30;99.90;;;;;;4961432;28;20209;-61
2023/07/09 07:38:29;;;;;;;30.95;18.90;;;26.20;99.90;;;;;;4952582;28;20548;-61
2023/07/09 07:40:57;;;;;;;28.15;17.95;;;26.40;99.90;;;;;;4955075;28;20206;-62
2023/07/09 07:43:25;;;;;;;26.70;15.75;;;26.90;41.80;;;;;;4958350;28;20219;-62
2023/07/09 07:45:55;;;;;;;25.75;15.30;;;27.40;1.00;;;;;;4948835;28;20203;-62
2023/07/09 07:48:23;;;;;;;19.05;11.65;;;27.90;1.00;;;;;;4951169;28;20203;-62
2023/07/09 07:50:51;;;;;;;18.10;12.35;;;28.50;99.90;;;;;;4961535;28;20195;-62
2023/07/09 07:53:21;;;;;;;20.33;12.45;;;28.80;1.00;;;;;;4961248;28;20196;-62
2023/07/09 07:55:49;;;;;;;20.52;12.02;;;29.10;1.00;;;;;;4953077;28;20204;-62
2023/07/09 07:58:18;;;;;;;22.00;12.98;;;29.30;1.00;;;;;;4963142;28;20238;-62
2023/07/09 08:00:46;;;;;;;18.95;12.95;;;29.40;99.90;;;;;;4951496;28;20200;-62
2023/07/09 08:03:14;;;;;;;16.95;11.73;;;29.50;99.90;;;;;;4957485;28;20215;-62
2023/07/09 08:05:43;;;;;;;18.58;11.85;;;29.90;48.90;;;;;;4959920;28;20558;-63
2023/07/09 08:08:11;;;;;;;20.23;11.95;;;30.40;1.00;;;;;;4957132;28;20199;-62
2023/07/09 08:10:41;;;;;;;17.95;10.75;;;30.80;99.90;;;;;;4965638;28;20195;-62
2023/07/09 08:13:09;;;;;;;16.33;10.15;;;31.10;99.90;;;;;;4953607;28;20195;-62
2023/07/09 08:15:37;;;;;;;16.05;10.70;;;31.50;1.00;;;;;;4950059;28;20216;-62
2023/07/09 08:18:06;;;;;;;17.17;10.40;;;31.60;1.00;;;;;;4959453;28;20196;-62
2023/07/09 08:20:35;;;;;;;19.20;12.00;;;31.70;99.90;;;;;;4968470;28;20198;-62
2023/07/09 08:23:03;;;;;;;18.98;11.55;;;31.50;1.00;;;;;;4969599;28;20216;-62
2023/07/09 08:25:32;;;;;;;18.50;11.18;;;31.40;1.00;;;;;;4968450;28;20196;-62
2023/07/09 08:28:01;;;;;;;15.00;10.60;;;31.50;1.00;;;;;;4962778;28;20204;-61
2023/07/09 08:30:30;;;;;;;18.17;11.40;;;31.60;1.00;;;;;;4958336;28;20207;-61
2023/07/09 08:32:58;;;;;;;14.25;9.82;;;32.00;1.00;;;;;;4966592;28;20219;-61
2023/07/09 08:35:26;;;;;;;13.60;9.93;;;32.20;99.90;;;;;;4959433;28;20196;-62
2023/07/09 08:38:04;;;;;;;13.88;10.63;;;32.30;99.90;;;;;;4960100;28;20203;-60
2023/07/09 08:40:32;;;;;;;14.07;10.07;;;32.30;99.90;;;;;;4957092;28;20207;-61
2023/07/09 08:43:22;;;;;;;14.90;10.63;;;32.20;11.70;;;;;;4958696;28;20212;-60
2023/07/09 08:45:57;;;;;;;16.40;10.45;;;32.00;52.50;;;;;;4964740;28;20191;-61
2023/07/09 08:48:32;;;;;;;11.75;10.05;;;31.90;99.90;;;;;;4935923;28;20256;-61
2023/07/09 08:51:08;;;;;;;13.95;9.23;;;31.80;1.00;;;;;;4961253;28;20234;-61
2023/07/09 08:53:42;;;;;;;14.43;10.57;;;31.90;1.00;;;;;;4965651;28;20234;-62
2023/07/09 08:56:11;;;;;;;17.40;10.73;;;32.00;99.90;;;;;;4960309;28;20196;-61
2023/07/09 08:58:43;;;;;;;26.55;11.13;;;31.90;99.90;;;;;;4964939;28;20200;-61
2023/07/09 09:01:19;;;;;;;17.63;10.55;;;31.80;1.00;;;;;;4957467;28;20203;-61
2023/07/09 09:03:50;;;;;;;11.57;9.93;;;31.80;99.90;;;;;;4967962;28;20226;-61
2023/07/09 09:06:22;;;;;;;14.55;10.57;;;32.00;99.90;;;;;;4964601;28;20198;-61
2023/07/09 09:09:03;;;;;;;12.45;9.23;;;32.30;99.90;;;;;;4956227;28;20287;-61
2023/07/09 09:11:43;;;;;;;9.90;8.48;;;33.00;99.90;;;;;;4962414;28;20206;-61
2023/07/09 09:14:25;;;;;;;13.63;10.65;;;33.30;1.00;;;;;;4962025;28;20223;-61
2023/07/09 09:16:54;;;;;;;11.55;8.25;;;33.80;1.00;;;;;;4964134;28;20212;-61
2023/07/09 09:19:27;;;;;;;9.77;8.57;;;34.10;1.00;;;;;;4946832;28;20502;-61
2023/07/09 09:22:01;;;;;;;14.98;9.45;;;34.70;99.90;;;;;;4964764;28;20192;-61
2023/07/09 09:24:37;;;;;;;12.43;9.40;;;35.10;1.00;;;;;;4942550;28;20576;-61
2023/07/09 09:27:06;;;;;;;14.55;10.52;;;35.20;1.00;;;;;;4958639;28;20275;-61
2023/07/09 09:29:38;;;;;;;10.38;8.95;;;35.00;99.90;;;;;;4963581;28;20199;-61
2023/07/09 09:32:21;;;;;;;12.60;8.50;;;34.80;99.90;;;;;;4942879;28;20220;-60
2023/07/09 09:34:49;;;;;;;11.57;9.73;;;34.60;1.00;;;;;;4955095;28;20294;-60
2023/07/09 09:37:28;;;;;;;16.80;9.35;;;34.40;1.00;;;;;;4955822;28;20212;-61
2023/07/09 09:39:57;;;;;;;17.05;9.00;;;33.90;1.00;;;;;;4959991;28;20581;-61
2023/07/09 09:42:44;;;;;;;14.68;7.97;;;33.80;1.00;;;;;;4955162;28;20674;-61
2023/07/09 09:45:18;;;;;;;10.77;7.28;;;33.30;1.00;;;;;;4961248;28;20212;-61
2023/07/09 09:47:48;;;;;;;14.25;7.03;;;32.20;1.00;;;;;;4962208;28;20249;-61
2023/07/09 09:50:17;;;;;;;8.43;6.15;;;31.70;99.90;;;;;;4949477;28;20267;-61
2023/07/09 09:52:47;;;;;;;11.75;6.40;;;31.40;1.00;;;;;;4956672;28;20199;-61
2023/07/09 09:55:20;;;;;;;9.77;6.60;;;31.10;1.00;;;;;;4962916;28;20234;-61
2023/07/09 09:57:53;;;;;;;7.07;6.35;;;31.00;99.90;;;;;;4959185;28;20207;-60
2023/07/09 10:00:26;;;;;;;9.77;6.38;;;30.90;1.00;;;;;;4960086;28;20192;-61
2023/07/09 10:02:59;;;;;;;7.70;5.95;;;30.80;1.00;;;;;;4961136;28;20307;-61
2023/07/09 10:05:35;;;;;;;4.47;4.10;;;30.60;1.00;;;;;;4959905;28;20204;-61
2023/07/09 10:08:09;;;;;;;5.10;4.60;;;30.70;99.90;;;;;;4963453;28;20195;-61
2023/07/09 10:10:38;;;;;;;6.25;4.30;;;30.90;1.00;;;;;;4969926;28;20200;-61
2023/07/09 10:13:16;;;;;;;5.88;4.78;;;31.20;1.00;;;;;;4970017;28;20548;-61
2023/07/09 10:15:52;;;;;;;6.32;4.70;;;31.30;99.90;;;;;;4970643;28;20187;-61
2023/07/09 10:18:32;;;;;;;6.45;4.72;;;31.20;1.00;;;;;;4969872;28;20212;-61
2023/07/09 10:21:07;;;;;;;5.00;4.50;;;31.00;99.90;;;;;;4970516;28;20620;-60
2023/07/09 10:23:43;;;;;;;7.72;4.03;;;30.60;99.90;;;;;;4978944;28;20225;-60
2023/07/09 10:26:15;;;;;;;8.02;4.72;;;30.20;1.00;;;;;;4968792;28;20191;-60
2023/07/09 10:29:20;;;;;;;8.00;4.70;;;29.90;1.00;;;;;;4961122;28;20633;-60
2023/07/09 10:31:56;;;;;;;5.85;5.13;;;29.60;99.90;;;;;;4965052;28;20202;-60
2023/07/09 10:34:33;;;;;;;11.10;4.75;;;29.40;1.00;;;;;;4969449;28;20208;-60
2023/07/09 10:37:21;;;;;;;7.40;4.97;;;29.10;1.00;;;;;;4971769;28;20252;-61
2023/07/09 10:39:53;;;;;;;9.25;5.18;;;28.70;1.00;;;;;;4963957;28;20202;-60
2023/07/09 10:42:28;;;;;;;7.13;4.35;;;28.50;99.90;;;;;;4972904;28;20209;-60
2023/07/09 10:45:02;;;;;;;8.27;4.72;;;28.50;99.90;;;;;;4969871;28;20218;-60
2023/07/09 10:47:36;;;;;;;9.23;4.47;;;28.30;99.90;;;;;;4977835;28;20649;-60
2023/07/09 10:50:10;;;;;;;7.50;4.63;;;28.20;1.00;;;;;;4963317;28;20200;-61
2023/07/09 10:52:42;;;;;;;4.35;4.05;;;28.20;1.00;;;;;;4966408;28;20209;-61
2023/07/09 10:55:18;;;;;;;6.88;4.20;;;28.30;1.00;;;;;;4959698;28;20239;-60
2023/07/09 10:57:52;;;;;;;6.30;4.00;;;28.40;22.80;;;;;;4955115;29;20207;-60
2023/07/09 11:00:23;;;;;;;4.53;3.58;;;28.60;1.00;;;;;;4958328;28;20202;-61
2023/07/09 11:03:00;;;;;;;7.72;3.95;;;29.00;99.90;;;;;;4961717;28;20300;-61
2023/07/09 11:05:28;;;;;;;5.13;4.00;;;29.60;1.00;;;;;;4964323;28;20183;-61
2023/07/09 11:08:03;;;;;;;3.83;3.53;;;30.00;99.90;;;;;;4948709;29;20197;-61
2023/07/09 11:10:35;;;;;;;5.63;3.75;;;30.40;99.90;;;;;;4964898;28;20203;-61
2023/07/09 11:13:06;;;;;;;3.70;3.47;;;30.80;1.00;;;;;;4968899;28;20625;-61
2023/07/09 11:15:38;;;;;;;6.68;3.72;;;30.70;1.00;;;;;;4959189;28;20196;-61
2023/07/09 11:18:12;;;;;;;5.47;3.83;;;30.40;1.00;;;;;;4956617;28;20651;-61
2023/07/09 11:20:45;;;;;;;5.38;4.47;;;30.10;7.80;;;;;;4955564;28;20278;-61
2023/07/09 11:23:23;;;;;;;5.65;4.32;;;30.00;1.00;;;;;;4973015;28;20201;-61
2023/07/09 11:26:03;;;;;;;6.47;4.45;;;29.50;99.90;;;;;;4956569;28;20230;-61
2023/07/09 11:28:36;;;;;;;6.35;4.00;;;29.00;1.00;;;;;;4959170;28;20206;-61
2023/07/09 11:31:07;;;;;;;7.03;4.30;;;28.80;1.00;;;;;;4969346;28;20193;-61
2023/07/09 11:33:47;;;;;;;8.65;4.30;;;28.60;99.90;;;;;;4957064;28;20201;-61
2023/07/09 11:36:26;;;;;;;5.85;4.20;;;28.50;99.90;;;;;;4958624;28;20205;-61
2023/07/09 11:38:55;;;;;;;6.70;4.28;;;28.40;1.00;;;;;;4958221;28;20520;-61
2023/07/09 11:41:38;;;;;;;7.43;4.38;;;28.30;1.00;;;;;;4951774;28;20211;-60
2023/07/09 11:44:15;;;;;;;5.95;4.07;;;28.00;1.00;;;;;;4949555;28;20213;-60
2023/07/09 11:46:55;;;;;;;4.53;3.75;;;27.70;1.00;;;;;;4945810;28;20205;-60
2023/07/09 11:49:40;;;;;;;6.73;3.93;;;27.50;1.00;;;;;;4962877;28;20204;-61
2023/07/09 11:52:10;;;;;;;5.50;3.80;;;27.40;1.00;;;;;;4966012;28;20215;-60
2023/07/09 11:54:39;;;;;;;6.17;3.83;;;27.20;1.00;;;;;;4955775;28;20684;-61
2023/07/09 11:57:14;;;;;;;8.23;4.27;;;27.00;99.90;;;;;;4973744;28;20542;-61
2023/07/09 11:59:43;;;;;;;7.97;3.90;;;26.80;99.90;;;;;;4961702;28;20192;-61
2023/07/09 12:02:18;;;;;;;8.07;4.10;;;26.60;1.00;;;;;;4951769;28;20199;-61
2023/07/09 12:04:49;;;;;;;7.27;4.20;;;26.50;1.00;;;;;;4970093;28;20667;-60
2023/07/09 12:07:18;;;;;;;7.07;4.37;;;26.40;1.00;;;;;;4949025;29;20208;-60
2023/07/09 12:09:50;;;;;;;5.13;3.80;;;26.40;1.00;;;;;;4963245;28;20192;-61
2023/07/09 12:12:21;;;;;;;4.60;3.90;;;26.30;1.00;;;;;;4962240;28;20251;-60
2023/07/09 12:14:49;;;;;;;4.83;4.43;;;26.20;1.00;;;;;;4956008;28;20191;-60
2023/07/09 12:17:18;;;;;;;5.57;3.90;;;26.20;1.00;;;;;;4970871;28;20626;-60
2023/07/09 12:19:48;;;;;;;4.57;3.87;;;26.20;1.00;;;;;;4974462;28;20192;-61
2023/07/09 12:22:21;;;;;;;8.50;3.67;;;26.10;1.00;;;;;;4973281;28;20664;-62
2023/07/09 12:24:51;;;;;;;8.67;4.90;;;26.10;1.00;;;;;;4936273;29;20211;-61
2023/07/09 12:27:23;;;;;;;11.63;4.63;;;26.00;1.00;;;;;;4950619;28;20275;-61
2023/07/09 12:29:58;;;;;;;5.47;4.20;;;25.90;1.00;;;;;;4955138;28;20566;-61
2023/07/09 12:32:28;;;;;;;8.03;5.10;;;25.70;1.00;;;;;;4955427;28;20627;-62
2023/07/09 12:34:58;;;;;;;10.93;4.70;;;25.50;1.00;;;;;;4963992;28;20188;-62
2023/07/09 12:37:31;;;;;;;8.17;4.97;;;25.40;1.00;;;;;;4956672;28;20251;-61
2023/07/09 12:40:02;;;;;;;10.90;5.13;;;25.20;1.00;;;;;;4955264;28;20180;-61
2023/07/09 12:42:34;;;;;;;5.83;4.70;;;25.00;22.80;;;;;;4941288;28;20216;-61
2023/07/09 12:45:03;;;;;;;6.97;5.40;;;24.80;23.80;;;;;;4946792;28;20219;-61
2023/07/09 12:47:31;;;;;;;9.70;4.97;;;24.70;59.90;;;;;;4954784;28;20215;-61
2023/07/09 12:50:21;;;;;;;6.57;5.13;;;24.60;43.40;;;;;;4951794;28;20199;-62
2023/07/09 12:52:50;;;;;;;7.37;5.40;;;24.70;57.60;;;;;;4954402;28;20204;-61
2023/07/09 12:55:23;;;;;;;12.17;5.20;;;24.60;25.30;;;;;;4954514;28;20747;-62
2023/07/09 12:57:52;;;;;;;10.20;5.50;;;24.70;36.10;;;;;;4954305;28;20192;-61
2023/07/09 13:00:21;;;;;;;9.07;5.53;;;24.80;82.80;;;;;;4955783;28;20218;-62